createdAt,value
2022-10-21T00:00:05.669Z,13.12
2022-10-21T00:00:55.622Z,13.10
2022-10-21T00:01:45.626Z,13.09
2022-10-21T00:02:35.950Z,13.07
2022-10-21T00:03:25.603Z,13.07
2022-10-21T00:04:15.587Z,13.09
2022-10-21T00:05:05.593Z,13.06
2022-10-21T00:05:55.779Z,13.06
2022-10-21T00:06:45.568Z,13.07
2022-10-21T00:07:35.564Z,13.06
2022-10-21T00:08:25.553Z,13.07
2022-10-21T00:09:15.528Z,13.07
2022-10-21T00:10:05.530Z,13.07
2022-10-21T00:10:55.510Z,13.09
2022-10-21T00:11:45.528Z,13.10
2022-10-21T00:12:35.789Z,13.10
2022-10-21T00:13:25.507Z,13.12
2022-10-21T00:14:15.525Z,13.10
2022-10-21T00:15:05.467Z,13.12
2022-10-21T00:15:55.457Z,13.09
2022-10-21T00:16:45.447Z,13.10
2022-10-21T00:17:35.432Z,13.04
2022-10-21T00:18:25.432Z,13.01
2022-10-21T00:19:15.417Z,13.03
2022-10-21T00:20:05.463Z,13.04
2022-10-21T00:20:55.401Z,13.03
2022-10-21T00:21:45.396Z,12.99
2022-10-21T00:22:35.728Z,12.95
2022-10-21T00:23:25.380Z,12.94
2022-10-21T00:24:15.360Z,12.94
2022-10-21T00:25:05.348Z,12.94
2022-10-21T00:25:55.357Z,12.94
2022-10-21T00:26:45.335Z,12.95
2022-10-21T00:27:35.641Z,12.92
2022-10-21T00:28:25.312Z,12.92
2022-10-21T00:29:15.320Z,12.95
2022-10-21T00:30:05.316Z,12.96
2022-10-21T00:30:57.933Z,12.96
2022-10-21T00:31:45.496Z,12.96
2022-10-21T00:32:35.635Z,12.96
2022-10-21T00:33:25.247Z,12.95
2022-10-21T00:34:15.244Z,12.96
2022-10-21T00:35:05.237Z,12.98
2022-10-21T00:35:55.234Z,12.98
2022-10-21T00:36:45.221Z,12.98
2022-10-21T00:37:35.423Z,12.98
2022-10-21T00:38:25.202Z,13.01
2022-10-21T00:39:15.196Z,13.01
2022-10-21T00:40:05.236Z,13.03
2022-10-21T00:40:55.174Z,13.03
2022-10-21T00:41:45.165Z,13.01
2022-10-21T00:42:35.406Z,13.01
2022-10-21T00:43:25.165Z,13.03
2022-10-21T00:44:15.135Z,13.03
2022-10-21T00:45:05.128Z,13.01
2022-10-21T00:45:55.116Z,12.98
2022-10-21T00:46:45.095Z,12.96
2022-10-21T00:47:35.182Z,12.96
2022-10-21T00:48:25.084Z,12.95
2022-10-21T00:49:15.287Z,12.96
2022-10-21T00:50:05.066Z,12.98
2022-10-21T00:50:55.064Z,12.94
2022-10-21T00:51:45.046Z,12.95
2022-10-21T00:52:35.289Z,12.92
2022-10-21T00:53:25.030Z,12.94
2022-10-21T00:54:15.026Z,12.92
2022-10-21T00:55:05.066Z,12.92
2022-10-21T00:55:55.027Z,12.94
2022-10-21T00:56:45.055Z,12.95
2022-10-21T00:57:35.285Z,12.96
2022-10-21T00:58:24.975Z,12.96
2022-10-21T00:59:14.965Z,12.98
2022-10-21T01:00:04.954Z,12.98
2022-10-21T01:00:54.989Z,12.99
2022-10-21T01:01:44.936Z,12.99
2022-10-21T01:02:34.924Z,12.99
2022-10-21T01:03:24.913Z,12.99
2022-10-21T01:04:14.931Z,12.99
2022-10-21T01:05:04.952Z,12.98
2022-10-21T01:05:54.902Z,12.99
2022-10-21T01:06:44.907Z,13.01
2022-10-21T01:07:37.560Z,13.01
2022-10-21T01:08:25.882Z,13.03
2022-10-21T01:09:14.907Z,13.03
2022-10-21T01:10:04.838Z,13.04
2022-10-21T01:10:54.834Z,13.06
2022-10-21T01:11:44.823Z,13.07
2022-10-21T01:12:35.023Z,13.09
2022-10-21T01:13:24.804Z,13.09
2022-10-21T01:14:14.794Z,13.10
2022-10-21T01:15:04.909Z,13.09
2022-10-21T01:15:54.773Z,13.06
2022-10-21T01:16:47.376Z,13.03
2022-10-21T01:17:45.931Z,13.03
2022-10-21T01:18:25.766Z,13.04
2022-10-21T01:19:14.749Z,13.07
2022-10-21T01:20:04.739Z,13.07
2022-10-21T01:20:54.714Z,13.09
2022-10-21T01:21:44.713Z,13.09
2022-10-21T01:22:34.703Z,13.07
2022-10-21T01:23:24.713Z,13.06
2022-10-21T01:24:14.684Z,13.07
2022-10-21T01:25:04.674Z,13.09
2022-10-21T01:25:54.690Z,13.09
2022-10-21T01:26:44.656Z,13.12
2022-10-21T01:27:34.789Z,13.10
2022-10-21T01:28:24.638Z,13.12
2022-10-21T01:29:14.639Z,13.12
2022-10-21T01:30:04.612Z,13.13
2022-10-21T01:30:54.604Z,13.12
2022-10-21T01:31:44.633Z,13.13
2022-10-21T01:32:34.590Z,13.12
2022-10-21T01:33:24.572Z,13.12
2022-10-21T01:34:14.572Z,13.10
2022-10-21T01:35:04.551Z,13.09
2022-10-21T01:35:54.574Z,13.07
2022-10-21T01:36:44.543Z,13.07
2022-10-21T01:37:34.600Z,13.04
2022-10-21T01:38:24.512Z,13.04
2022-10-21T01:39:14.516Z,13.03
2022-10-21T01:40:04.499Z,13.01
2022-10-21T01:40:54.698Z,13.01
2022-10-21T01:41:44.482Z,12.99
2022-10-21T01:42:34.502Z,13.01
2022-10-21T01:43:24.462Z,13.03
2022-10-21T01:44:14.453Z,13.04
2022-10-21T01:45:04.448Z,13.03
2022-10-21T01:45:54.433Z,13.06
2022-10-21T01:46:44.451Z,13.04
2022-10-21T01:47:34.431Z,13.06
2022-10-21T01:48:24.404Z,13.09
2022-10-21T01:49:14.401Z,13.07
2022-10-21T01:50:04.391Z,13.09
2022-10-21T01:50:54.382Z,13.06
2022-10-21T01:51:44.383Z,13.07
2022-10-21T01:52:34.592Z,13.04
2022-10-21T01:53:24.350Z,13.06
2022-10-21T01:54:14.343Z,13.06
2022-10-21T01:55:04.331Z,13.06
2022-10-21T01:55:54.332Z,13.06
2022-10-21T01:56:44.310Z,13.06
2022-10-21T01:57:34.310Z,13.06
2022-10-21T01:58:24.317Z,13.04
2022-10-21T01:59:14.281Z,13.06
2022-10-21T02:00:04.284Z,13.04
2022-10-21T02:00:54.351Z,13.04
2022-10-21T02:01:44.251Z,13.01
2022-10-21T02:02:34.252Z,13.03
2022-10-21T02:03:24.252Z,13.03
2022-10-21T02:04:14.241Z,13.04
2022-10-21T02:05:04.221Z,13.04
2022-10-21T02:05:54.220Z,13.04
2022-10-21T02:06:44.200Z,13.06
2022-10-21T02:07:34.193Z,13.07
2022-10-21T02:08:24.209Z,13.07
2022-10-21T02:09:14.278Z,13.10
2022-10-21T02:10:04.159Z,13.10
2022-10-21T02:10:54.159Z,13.09
2022-10-21T02:11:44.162Z,13.07
2022-10-21T02:12:34.144Z,13.07
2022-10-21T02:13:24.129Z,13.07
2022-10-21T02:14:14.143Z,13.09
2022-10-21T02:15:04.109Z,13.09
2022-10-21T02:15:54.122Z,13.09
2022-10-21T02:16:44.089Z,13.10
2022-10-21T02:17:34.082Z,13.07
2022-10-21T02:18:24.072Z,13.07
2022-10-21T02:19:14.070Z,13.07
2022-10-21T02:20:04.081Z,13.06
2022-10-21T02:20:54.048Z,13.04
2022-10-21T02:21:44.031Z,13.04
2022-10-21T02:22:34.019Z,13.04
2022-10-21T02:23:24.013Z,13.03
2022-10-21T02:24:14.030Z,13.04
2022-10-21T02:25:03.999Z,13.04
2022-10-21T02:25:53.988Z,13.04
2022-10-21T02:26:44.178Z,13.06
2022-10-21T02:27:33.967Z,13.06
2022-10-21T02:28:23.958Z,13.06
2022-10-21T02:29:13.947Z,13.04
2022-10-21T02:30:03.937Z,13.07
2022-10-21T02:30:53.927Z,13.06
2022-10-21T02:31:43.950Z,13.06
2022-10-21T02:32:33.912Z,13.04
2022-10-21T02:33:23.898Z,13.06
2022-10-21T02:34:13.897Z,13.06
2022-10-21T02:35:03.884Z,13.06
2022-10-21T02:35:53.877Z,13.07
2022-10-21T02:36:43.866Z,13.06
2022-10-21T02:37:34.601Z,13.06
2022-10-21T02:38:23.850Z,13.06
2022-10-21T02:39:13.844Z,13.06
2022-10-21T02:40:03.840Z,13.06
2022-10-21T02:40:53.817Z,13.06
2022-10-21T02:41:43.810Z,13.07
2022-10-21T02:42:33.796Z,13.06
2022-10-21T02:43:23.998Z,13.07
2022-10-21T02:44:13.780Z,13.07
2022-10-21T02:45:03.766Z,13.03
2022-10-21T02:45:53.760Z,13.01
2022-10-21T02:46:43.757Z,13.04
2022-10-21T02:47:33.747Z,13.06
2022-10-21T02:48:23.738Z,13.06
2022-10-21T02:49:13.748Z,13.06
2022-10-21T02:50:03.709Z,13.06
2022-10-21T02:50:53.707Z,13.06
2022-10-21T02:51:43.730Z,13.06
2022-10-21T02:52:33.696Z,13.06
2022-10-21T02:53:23.676Z,13.09
2022-10-21T02:54:13.674Z,13.07
2022-10-21T02:55:03.685Z,13.06
2022-10-21T02:55:53.656Z,13.07
2022-10-21T02:56:43.637Z,13.07
2022-10-21T02:57:33.636Z,13.09
2022-10-21T02:58:23.615Z,13.06
2022-10-21T02:59:13.618Z,13.04
2022-10-21T03:00:03.613Z,13.04
2022-10-21T03:00:53.670Z,13.01
2022-10-21T03:01:43.605Z,12.99
2022-10-21T03:02:33.578Z,12.98
2022-10-21T03:03:23.565Z,12.96
2022-10-21T03:04:13.556Z,12.98
2022-10-21T03:05:03.556Z,12.99
2022-10-21T03:05:53.545Z,12.99
2022-10-21T03:06:43.535Z,12.98
2022-10-21T03:07:33.545Z,12.96
2022-10-21T03:08:23.509Z,12.96
2022-10-21T03:09:13.507Z,12.96
2022-10-21T03:10:03.486Z,12.94
2022-10-21T03:10:53.802Z,12.94
2022-10-21T03:11:43.482Z,12.96
2022-10-21T03:12:33.465Z,12.95
2022-10-21T03:13:23.494Z,12.96
2022-10-21T03:14:13.450Z,12.96
2022-10-21T03:15:03.434Z,12.98
2022-10-21T03:15:53.451Z,12.98
2022-10-21T03:16:43.423Z,12.99
2022-10-21T03:17:33.415Z,12.99
2022-10-21T03:18:23.394Z,13.01
2022-10-21T03:19:13.485Z,13.01
2022-10-21T03:20:03.379Z,13.03
2022-10-21T03:20:53.396Z,13.03
2022-10-21T03:21:43.353Z,13.01
2022-10-21T03:22:33.354Z,13.03
2022-10-21T03:23:23.339Z,13.03
2022-10-21T03:24:19.839Z,13.03
2022-10-21T03:25:04.356Z,13.03
2022-10-21T03:25:53.318Z,13.03
2022-10-21T03:26:43.303Z,13.04
2022-10-21T03:27:33.295Z,13.04
2022-10-21T03:28:23.284Z,13.04
2022-10-21T03:29:13.279Z,13.04
2022-10-21T03:30:03.263Z,13.06
2022-10-21T03:30:53.273Z,13.06
2022-10-21T03:31:43.254Z,13.07
2022-10-21T03:32:33.242Z,13.06
2022-10-21T03:33:23.232Z,13.07
2022-10-21T03:34:13.442Z,13.07
2022-10-21T03:35:03.202Z,13.07
2022-10-21T03:35:53.233Z,13.07
2022-10-21T03:36:43.196Z,13.09
2022-10-21T03:37:33.183Z,13.10
2022-10-21T03:38:23.174Z,13.07
2022-10-21T03:39:13.163Z,13.04
2022-10-21T03:40:04.031Z,13.04
2022-10-21T03:40:53.145Z,13.03
2022-10-21T03:41:43.154Z,12.99
2022-10-21T03:42:33.138Z,12.99
2022-10-21T03:43:23.120Z,12.99
2022-10-21T03:44:13.125Z,12.99
2022-10-21T03:45:03.111Z,12.99
2022-10-21T03:45:53.091Z,13.03
2022-10-21T03:46:43.141Z,13.01
2022-10-21T03:47:33.073Z,12.98
2022-10-21T03:48:23.059Z,12.96
2022-10-21T03:49:20.799Z,12.96
2022-10-21T03:50:06.407Z,12.95
2022-10-21T03:50:53.034Z,12.96
2022-10-21T03:51:43.029Z,12.98
2022-10-21T03:52:33.043Z,12.98
2022-10-21T03:53:38.059Z,12.98
2022-10-21T03:54:14.009Z,12.99
2022-10-21T03:55:02.995Z,13.01
2022-10-21T03:55:56.423Z,12.99
2022-10-21T03:56:42.964Z,13.01
2022-10-21T03:57:32.955Z,13.01
2022-10-21T03:58:22.996Z,13.01
2022-10-21T03:59:12.941Z,12.99
2022-10-21T04:00:02.978Z,12.99
2022-10-21T04:00:52.917Z,13.01
2022-10-21T04:01:42.959Z,13.01
2022-10-21T04:02:32.894Z,13.01
2022-10-21T04:03:22.895Z,13.01
2022-10-21T04:04:12.893Z,13.01
2022-10-21T04:05:02.880Z,12.98
2022-10-21T04:05:52.868Z,12.98
2022-10-21T04:06:42.854Z,12.96
2022-10-21T04:07:32.862Z,12.95
2022-10-21T04:08:22.833Z,12.95
2022-10-21T04:09:12.956Z,12.96
2022-10-21T04:10:02.817Z,12.98
2022-10-21T04:10:52.848Z,12.98
2022-10-21T04:11:42.803Z,12.99
2022-10-21T04:12:33.040Z,13.01
2022-10-21T04:13:22.784Z,13.01
2022-10-21T04:14:15.274Z,13.03
2022-10-21T04:15:02.765Z,13.01
2022-10-21T04:15:52.751Z,13.04
2022-10-21T04:16:42.745Z,13.04
2022-10-21T04:17:32.732Z,13.07
2022-10-21T04:18:22.941Z,13.07
2022-10-21T04:19:12.710Z,13.07
2022-10-21T04:20:02.701Z,13.07
2022-10-21T04:20:52.692Z,13.07
2022-10-21T04:21:42.705Z,13.06
2022-10-21T04:22:32.672Z,13.04
2022-10-21T04:23:22.668Z,13.04
2022-10-21T04:24:12.680Z,13.03
2022-10-21T04:25:04.800Z,13.04
2022-10-21T04:25:52.632Z,13.04
2022-10-21T04:26:42.638Z,13.04
2022-10-21T04:27:32.625Z,13.04
2022-10-21T04:28:22.610Z,13.03
2022-10-21T04:29:12.599Z,13.06
2022-10-21T04:30:02.626Z,13.03
2022-10-21T04:30:52.601Z,13.03
2022-10-21T04:31:42.631Z,13.03
2022-10-21T04:32:32.560Z,13.03
2022-10-21T04:33:22.554Z,13.04
2022-10-21T04:34:12.542Z,13.04
2022-10-21T04:35:02.546Z,13.04
2022-10-21T04:35:52.541Z,13.06
2022-10-21T04:36:42.551Z,13.06
2022-10-21T04:37:32.509Z,13.09
2022-10-21T04:38:22.503Z,13.07
2022-10-21T04:39:12.492Z,13.06
2022-10-21T04:40:02.481Z,13.04
2022-10-21T04:40:52.477Z,13.04
2022-10-21T04:41:42.460Z,13.04
2022-10-21T04:42:32.661Z,13.04
2022-10-21T04:43:22.451Z,13.01
2022-10-21T04:44:12.429Z,13.03
2022-10-21T04:45:02.429Z,13.01
2022-10-21T04:45:52.418Z,13.01
2022-10-21T04:46:42.442Z,13.01
2022-10-21T04:47:32.402Z,13.01
2022-10-21T04:48:22.414Z,12.99
2022-10-21T04:49:12.385Z,12.99
2022-10-21T04:50:02.384Z,13.01
2022-10-21T04:50:52.356Z,13.04
2022-10-21T04:51:42.383Z,13.03
2022-10-21T04:52:32.344Z,13.01
2022-10-21T04:53:22.341Z,13.04
2022-10-21T04:54:12.531Z,13.03
2022-10-21T04:55:02.321Z,13.01
2022-10-21T04:55:52.308Z,13.03
2022-10-21T04:56:42.300Z,13.03
2022-10-21T04:57:32.289Z,13.04
2022-10-21T04:58:22.556Z,13.06
2022-10-21T04:59:12.260Z,13.06
2022-10-21T05:00:02.292Z,13.06
2022-10-21T05:00:52.294Z,13.07
2022-10-21T05:01:42.238Z,13.10
2022-10-21T05:02:32.280Z,13.09
2022-10-21T05:03:22.230Z,13.06
2022-10-21T05:04:12.210Z,13.04
2022-10-21T05:05:02.207Z,13.03
2022-10-21T05:05:52.194Z,13.03
2022-10-21T05:06:42.187Z,13.01
2022-10-21T05:07:32.183Z,13.03
2022-10-21T05:08:22.208Z,13.03
2022-10-21T05:09:12.223Z,13.03
2022-10-21T05:10:02.149Z,13.03
2022-10-21T05:10:52.149Z,13.03
2022-10-21T05:11:42.130Z,13.01
2022-10-21T05:12:32.188Z,12.99
2022-10-21T05:13:22.107Z,12.98
2022-10-21T05:14:12.158Z,12.95
2022-10-21T05:15:02.108Z,12.95
2022-10-21T05:15:52.079Z,12.95
2022-10-21T05:16:42.079Z,12.96
2022-10-21T05:17:32.065Z,12.96
2022-10-21T05:18:22.057Z,12.96
2022-10-21T05:19:12.049Z,12.96
2022-10-21T05:20:02.424Z,12.96
2022-10-21T05:20:52.035Z,12.96
2022-10-21T05:21:42.019Z,12.96
2022-10-21T05:22:32.007Z,12.98
2022-10-21T05:23:22.004Z,12.98
2022-10-21T05:24:11.999Z,12.98
2022-10-21T05:25:01.989Z,12.99
2022-10-21T05:25:51.986Z,13.01
2022-10-21T05:26:41.966Z,13.01
2022-10-21T05:27:31.957Z,13.03
2022-10-21T05:28:21.946Z,13.04
2022-10-21T05:29:11.938Z,13.03
2022-10-21T05:30:01.926Z,13.01
2022-10-21T05:30:51.938Z,12.99
2022-10-21T05:31:41.926Z,13.01
2022-10-21T05:32:31.895Z,13.03
2022-10-21T05:33:21.913Z,13.03
2022-10-21T05:34:11.878Z,13.03
2022-10-21T05:35:01.868Z,13.06
2022-10-21T05:35:51.856Z,13.06
2022-10-21T05:36:41.866Z,13.04
2022-10-21T05:37:31.836Z,13.06
2022-10-21T05:38:21.836Z,13.04
2022-10-21T05:39:11.863Z,13.04
2022-10-21T05:40:01.823Z,13.06
2022-10-21T05:40:51.808Z,13.06
2022-10-21T05:41:44.169Z,13.06
2022-10-21T05:42:32.787Z,13.09
2022-10-21T05:43:21.791Z,13.07
2022-10-21T05:44:11.765Z,13.10
2022-10-21T05:45:01.803Z,13.10
2022-10-21T05:45:51.745Z,13.12
2022-10-21T05:46:41.739Z,13.12
2022-10-21T05:47:31.727Z,13.13
2022-10-21T05:48:21.723Z,13.13
2022-10-21T05:49:11.716Z,13.14
2022-10-21T05:50:01.737Z,13.14
2022-10-21T05:50:51.715Z,13.16
2022-10-21T05:51:41.685Z,13.14
2022-10-21T05:52:31.682Z,13.14
2022-10-21T05:53:21.664Z,13.12
2022-10-21T05:54:11.653Z,13.12
2022-10-21T05:55:01.644Z,13.12
2022-10-21T05:55:52.377Z,13.10
2022-10-21T05:56:41.635Z,13.09
2022-10-21T05:57:31.624Z,13.09
2022-10-21T05:58:21.616Z,13.10
2022-10-21T05:59:11.603Z,13.09
2022-10-21T06:00:01.619Z,13.10
2022-10-21T06:00:51.650Z,13.10
2022-10-21T06:01:41.604Z,13.12
2022-10-21T06:02:31.567Z,13.13
2022-10-21T06:03:21.565Z,13.14
2022-10-21T06:04:11.543Z,13.13
2022-10-21T06:05:01.547Z,13.14
2022-10-21T06:05:51.736Z,13.14
2022-10-21T06:06:41.517Z,13.14
2022-10-21T06:07:31.556Z,13.13
2022-10-21T06:08:21.504Z,13.16
2022-10-21T06:09:11.525Z,13.16
2022-10-21T06:10:01.486Z,13.17
2022-10-21T06:10:51.479Z,13.19
2022-10-21T06:11:41.463Z,13.19
2022-10-21T06:12:31.467Z,13.17
2022-10-21T06:13:21.473Z,13.19
2022-10-21T06:14:11.434Z,13.19
2022-10-21T06:15:01.454Z,13.21
2022-10-21T06:15:51.525Z,13.21
2022-10-21T06:16:41.413Z,13.22
2022-10-21T06:17:31.392Z,13.22
2022-10-21T06:18:21.402Z,13.24
2022-10-21T06:19:11.403Z,13.21
2022-10-21T06:20:01.371Z,13.19
2022-10-21T06:20:51.372Z,13.14
2022-10-21T06:21:41.565Z,13.14
2022-10-21T06:22:31.342Z,13.14
2022-10-21T06:23:21.333Z,13.16
2022-10-21T06:24:11.331Z,13.16
2022-10-21T06:25:01.314Z,13.17
2022-10-21T06:25:51.312Z,13.17
2022-10-21T06:26:41.294Z,13.21
2022-10-21T06:27:31.502Z,13.22
2022-10-21T06:28:21.294Z,13.22
2022-10-21T06:29:11.263Z,13.22
2022-10-21T06:30:01.261Z,13.24
2022-10-21T06:30:51.249Z,13.25
2022-10-21T06:31:41.243Z,13.25
2022-10-21T06:32:31.221Z,13.27
2022-10-21T06:33:26.074Z,13.28
2022-10-21T06:34:12.251Z,13.25
2022-10-21T06:35:01.243Z,13.21
2022-10-21T06:35:51.194Z,13.19
2022-10-21T06:36:41.183Z,13.16
2022-10-21T06:37:31.170Z,13.13
2022-10-21T06:38:21.164Z,13.14
2022-10-21T06:39:11.150Z,13.14
2022-10-21T06:40:01.153Z,13.14
2022-10-21T06:40:51.172Z,13.13
2022-10-21T06:41:41.130Z,13.16
2022-10-21T06:42:31.120Z,13.14
2022-10-21T06:44:11.100Z,13.14
2022-10-21T06:45:01.103Z,13.14
2022-10-21T06:45:51.084Z,13.13
2022-10-21T06:46:41.116Z,13.16
2022-10-21T06:47:31.061Z,13.14
2022-10-21T06:48:21.054Z,13.16
2022-10-21T06:49:11.049Z,13.19
2022-10-21T06:50:01.049Z,13.17
2022-10-21T06:50:51.020Z,13.22
2022-10-21T06:51:41.038Z,13.21
2022-10-21T06:52:31.580Z,13.22
2022-10-21T06:53:21.002Z,13.25
2022-10-21T06:54:10.989Z,13.27
2022-10-21T06:55:00.979Z,13.28
2022-10-21T06:55:50.972Z,13.28
2022-10-21T06:56:40.973Z,13.29
2022-10-21T06:57:30.950Z,13.31
2022-10-21T06:58:20.960Z,13.35
2022-10-21T06:59:10.931Z,13.32
2022-10-21T07:00:00.949Z,13.36
2022-10-21T07:00:50.909Z,13.35
2022-10-21T07:01:59.105Z,13.36
2022-10-21T07:02:31.889Z,13.38
2022-10-21T07:03:20.909Z,13.39
2022-10-21T07:04:10.909Z,13.39
2022-10-21T07:05:00.869Z,13.41
2022-10-21T07:05:50.860Z,13.44
2022-10-21T07:06:40.850Z,13.41
2022-10-21T07:07:30.851Z,13.39
2022-10-21T07:08:22.552Z,13.39
2022-10-21T07:09:12.069Z,13.38
2022-10-21T07:10:00.811Z,13.36
2022-10-21T07:10:50.808Z,13.35
2022-10-21T07:11:40.798Z,13.35
2022-10-21T07:12:30.779Z,13.35
2022-10-21T07:13:25.511Z,13.35
2022-10-21T07:14:11.772Z,13.35
2022-10-21T07:15:00.817Z,13.36
2022-10-21T07:15:50.830Z,13.35
2022-10-21T07:16:40.739Z,13.38
2022-10-21T07:17:30.728Z,13.39
2022-10-21T07:18:20.720Z,13.43
2022-10-21T07:19:10.708Z,13.43
2022-10-21T07:20:00.710Z,13.43
2022-10-21T07:20:50.717Z,13.44
2022-10-21T07:21:40.678Z,13.44
2022-10-21T07:22:30.669Z,13.46
2022-10-21T07:23:20.668Z,13.47
2022-10-21T07:24:10.649Z,13.48
2022-10-21T07:25:50.656Z,13.51
2022-10-21T07:26:40.839Z,13.51
2022-10-21T07:27:30.618Z,13.51
2022-10-21T07:28:20.607Z,13.53
2022-10-21T07:29:10.609Z,13.51
2022-10-21T07:30:00.616Z,13.53
2022-10-21T07:30:52.028Z,13.54
2022-10-21T07:31:40.616Z,13.54
2022-10-21T07:32:30.567Z,13.55
2022-10-21T07:33:20.548Z,13.57
2022-10-21T07:34:10.548Z,13.57
2022-10-21T07:35:00.527Z,13.61
2022-10-21T07:35:50.555Z,13.61
2022-10-21T07:36:40.509Z,13.63
2022-10-21T07:37:30.549Z,13.63
2022-10-21T07:38:22.268Z,13.65
2022-10-21T07:39:10.488Z,13.65
2022-10-21T07:40:00.478Z,13.65
2022-10-21T07:40:50.499Z,13.65
2022-10-21T07:41:40.458Z,13.63
2022-10-21T07:42:30.454Z,13.63
2022-10-21T07:43:20.477Z,13.65
2022-10-21T07:44:10.426Z,13.65
2022-10-21T07:45:00.426Z,13.63
2022-10-21T07:45:50.418Z,13.61
2022-10-21T07:46:40.639Z,13.59
2022-10-21T07:47:30.398Z,13.61
2022-10-21T07:48:20.387Z,13.61
2022-10-21T07:49:10.382Z,13.61
2022-10-21T07:50:00.371Z,13.59
2022-10-21T07:50:50.367Z,13.59
2022-10-21T07:51:40.347Z,13.61
2022-10-21T07:52:32.630Z,13.59
2022-10-21T07:53:20.565Z,13.61
2022-10-21T07:54:10.316Z,13.62
2022-10-21T07:55:00.306Z,13.62
2022-10-21T07:55:50.309Z,13.63
2022-10-21T07:56:40.301Z,13.65
2022-10-21T07:57:30.291Z,13.65
2022-10-21T07:58:20.595Z,13.62
2022-10-21T07:59:12.811Z,13.63
2022-10-21T08:00:00.256Z,13.65
2022-10-21T08:00:50.283Z,13.65
2022-10-21T08:01:40.476Z,13.65
2022-10-21T08:02:30.227Z,13.69
2022-10-21T08:03:20.237Z,13.69
2022-10-21T08:04:11.126Z,13.71
2022-10-21T08:05:00.222Z,13.69
2022-10-21T08:05:50.204Z,13.71
2022-10-21T08:06:40.184Z,13.73
2022-10-21T08:07:30.178Z,13.73
2022-10-21T08:08:20.163Z,13.72
2022-10-21T08:09:10.235Z,13.73
2022-10-21T08:10:00.200Z,13.76
2022-10-21T08:11:40.125Z,13.80
2022-10-21T08:12:30.126Z,13.83
2022-10-21T08:13:20.106Z,13.83
2022-10-21T08:14:10.108Z,13.86
2022-10-21T08:15:00.104Z,13.86
2022-10-21T08:15:50.117Z,13.86
2022-10-21T08:16:40.077Z,13.87
2022-10-21T08:17:30.065Z,13.87
2022-10-21T08:18:20.057Z,13.88
2022-10-21T08:19:10.045Z,13.90
2022-10-21T08:20:00.051Z,13.93
2022-10-21T08:20:50.026Z,13.93
2022-10-21T08:21:40.035Z,13.96
2022-10-21T08:22:30.015Z,13.98
2022-10-21T08:23:19.999Z,13.98
2022-10-21T08:24:10.002Z,14.01
2022-10-21T08:24:59.976Z,14.01
2022-10-21T08:25:49.975Z,14.02
2022-10-21T08:26:39.955Z,14.02
2022-10-21T08:27:30.001Z,14.02
2022-10-21T08:28:19.945Z,14.05
2022-10-21T08:29:09.947Z,14.04
2022-10-21T08:29:59.926Z,14.04
2022-10-21T08:30:49.914Z,14.05
2022-10-21T08:31:39.906Z,14.05
2022-10-21T08:32:29.906Z,14.06
2022-10-21T08:33:19.947Z,14.08
2022-10-21T08:34:09.888Z,14.08
2022-10-21T08:34:59.867Z,14.11
2022-10-21T08:35:49.865Z,14.12
2022-10-21T08:36:39.844Z,14.13
2022-10-21T08:37:29.845Z,14.16
2022-10-21T08:38:19.825Z,14.19
2022-10-21T08:39:09.884Z,14.21
2022-10-21T08:39:59.828Z,14.23
2022-10-21T08:40:52.248Z,14.29
2022-10-21T08:41:40.801Z,14.34
2022-10-21T08:42:29.784Z,14.36
2022-10-21T08:43:19.773Z,14.39
2022-10-21T08:44:09.770Z,14.41
2022-10-21T08:44:59.805Z,14.44
2022-10-21T08:45:49.756Z,14.45
2022-10-21T08:46:39.734Z,14.46
2022-10-21T08:47:29.734Z,14.49
2022-10-21T08:48:19.763Z,14.52
2022-10-21T08:49:09.715Z,14.54
2022-10-21T08:49:59.713Z,14.56
2022-10-21T08:50:49.694Z,14.57
2022-10-21T08:51:39.700Z,14.60
2022-10-21T08:52:30.094Z,14.61
2022-10-21T08:53:19.680Z,14.63
2022-10-21T08:54:09.663Z,14.66
2022-10-21T08:54:59.643Z,14.66
2022-10-21T08:55:49.643Z,14.69
2022-10-21T08:56:39.634Z,14.69
2022-10-21T08:57:29.623Z,14.72
2022-10-21T08:58:19.847Z,14.75
2022-10-21T08:59:09.602Z,14.78
2022-10-21T08:59:59.603Z,14.78
2022-10-21T09:00:49.590Z,14.80
2022-10-21T09:01:39.575Z,14.80
2022-10-21T09:02:29.604Z,14.83
2022-10-21T09:03:19.741Z,14.83
2022-10-21T09:04:09.573Z,14.83
2022-10-21T09:04:59.570Z,14.85
2022-10-21T09:05:49.532Z,14.87
2022-10-21T09:06:39.521Z,14.90
2022-10-21T09:07:29.546Z,14.91
2022-10-21T09:08:19.505Z,14.93
2022-10-21T09:09:09.530Z,14.95
2022-10-21T09:09:59.483Z,14.97
2022-10-21T09:10:49.476Z,15.00
2022-10-21T09:11:39.462Z,15.03
2022-10-21T09:12:29.461Z,15.07
2022-10-21T09:13:19.702Z,15.11
2022-10-21T09:14:09.442Z,15.12
2022-10-21T09:14:59.428Z,15.15
2022-10-21T09:15:49.422Z,15.16
2022-10-21T09:16:39.409Z,15.19
2022-10-21T09:17:29.425Z,15.18
2022-10-21T09:18:19.391Z,15.19
2022-10-21T09:19:09.425Z,15.20
2022-10-21T09:19:59.371Z,15.22
2022-10-21T09:20:54.927Z,15.25
2022-10-21T09:21:40.352Z,15.28
2022-10-21T09:22:35.427Z,15.33
2022-10-21T09:23:20.384Z,15.35
2022-10-21T09:24:09.343Z,15.38
2022-10-21T09:24:59.345Z,15.43
2022-10-21T09:25:49.333Z,15.46
2022-10-21T09:26:39.305Z,15.48
2022-10-21T09:27:37.855Z,15.49
2022-10-21T09:28:20.291Z,15.52
2022-10-21T09:29:09.291Z,15.53
2022-10-21T09:29:59.501Z,15.56
2022-10-21T09:30:49.297Z,15.59
2022-10-21T09:31:39.251Z,15.62
2022-10-21T09:33:19.271Z,15.62
2022-10-21T09:34:09.263Z,15.66
2022-10-21T09:34:59.211Z,15.68
2022-10-21T09:35:49.211Z,15.70
2022-10-21T09:36:39.202Z,15.70
2022-10-21T09:37:31.748Z,15.71
2022-10-21T09:38:20.191Z,15.73
2022-10-21T09:39:09.179Z,15.67
2022-10-21T09:39:59.190Z,15.70
2022-10-21T09:40:49.162Z,15.73
2022-10-21T09:41:39.162Z,15.70
2022-10-21T09:42:46.287Z,15.62
2022-10-21T09:43:20.135Z,15.64
2022-10-21T09:44:09.131Z,15.58
2022-10-21T09:44:59.111Z,15.58
2022-10-21T09:45:49.152Z,15.55
2022-10-21T09:46:39.107Z,15.58
2022-10-21T09:47:29.091Z,15.60
2022-10-21T09:48:19.074Z,15.64
2022-10-21T09:49:47.310Z,15.62
2022-10-21T09:50:08.050Z,15.64
2022-10-21T09:50:50.114Z,15.62
2022-10-21T09:51:39.050Z,15.66
2022-10-21T09:52:29.037Z,15.68
2022-10-21T09:53:22.648Z,15.70
2022-10-21T09:54:10.092Z,15.73
2022-10-21T09:54:59.090Z,15.73
2022-10-21T09:55:49.042Z,15.74
2022-10-21T09:56:39.232Z,15.78
2022-10-21T09:57:28.982Z,15.77
2022-10-21T09:58:19.001Z,15.76
2022-10-21T09:59:08.962Z,15.77
2022-10-21T09:59:58.961Z,15.78
2022-10-21T10:00:48.951Z,15.78
2022-10-21T10:01:39.005Z,15.84
2022-10-21T10:02:29.160Z,15.81
2022-10-21T10:03:18.930Z,15.80
2022-10-21T10:04:08.920Z,15.80
2022-10-21T10:04:58.899Z,15.71
2022-10-21T10:05:49.023Z,15.70
2022-10-21T10:06:38.907Z,15.67
2022-10-21T10:07:28.890Z,15.68
2022-10-21T10:08:18.891Z,15.68
2022-10-21T10:09:08.863Z,15.64
2022-10-21T10:09:58.849Z,15.64
2022-10-21T10:10:48.840Z,15.64
2022-10-21T10:11:38.830Z,15.64
2022-10-21T10:12:28.863Z,15.64
2022-10-21T10:13:18.810Z,15.60
2022-10-21T10:14:09.013Z,15.62
2022-10-21T10:14:58.800Z,15.64
2022-10-21T10:15:48.791Z,15.62
2022-10-21T10:16:38.794Z,15.66
2022-10-21T10:17:28.776Z,15.67
2022-10-21T10:18:18.779Z,15.68
2022-10-21T10:19:08.763Z,15.67
2022-10-21T10:19:58.767Z,15.64
2022-10-21T10:20:48.756Z,15.53
2022-10-21T10:21:38.730Z,15.51
2022-10-21T10:22:28.723Z,15.49
2022-10-21T10:23:18.722Z,15.46
2022-10-21T10:24:08.710Z,15.44
2022-10-21T10:24:58.922Z,15.41
2022-10-21T10:25:48.722Z,15.37
2022-10-21T10:26:38.690Z,15.38
2022-10-21T10:27:28.679Z,15.38
2022-10-21T10:28:18.677Z,15.41
2022-10-21T10:29:08.677Z,15.43
2022-10-21T10:29:58.642Z,15.46
2022-10-21T10:30:48.660Z,15.46
2022-10-21T10:31:38.634Z,15.46
2022-10-21T10:32:28.617Z,15.43
2022-10-21T10:33:18.599Z,15.40
2022-10-21T10:34:08.614Z,15.40
2022-10-21T10:34:58.592Z,15.38
2022-10-21T10:35:48.580Z,15.38
2022-10-21T10:36:38.613Z,15.37
2022-10-21T10:37:28.707Z,15.28
2022-10-21T10:38:18.560Z,15.30
2022-10-21T10:39:08.542Z,15.27
2022-10-21T10:39:58.529Z,15.27
2022-10-21T10:40:48.530Z,15.27
2022-10-21T10:41:38.518Z,15.23
2022-10-21T10:42:28.532Z,15.22
2022-10-21T10:43:18.501Z,15.22
2022-10-21T10:44:08.492Z,15.23
2022-10-21T10:44:58.478Z,15.30
2022-10-21T10:45:48.487Z,15.34
2022-10-21T10:46:38.534Z,15.41